Weather reports worldwide

Advertisment
Autilla del Pino, Spain (8072): temperature & dewpoint: 16.05.2019 17:00:00 - 22.05.2019 17:00:00 (CEST)Autilla del Pino, Spain (8072): wind speed & gusts: 16.05.2019 17:00:00 - 22.05.2019 17:00:00 (CEST)Autilla del Pino, Spain (8072): wind direction: 16.05.2019 17:00:00 - 22.05.2019 17:00:00 (CEST)Autilla del Pino, Spain (8072): precipitation: 16.05.2019 17:00:00 - 22.05.2019 17:00:00 (CEST)
Date & Time tt [°C] td [°C] ff [km/h] ff [kn] fx [km/h] fx [kn] dd rr [mm]
22.05.2019 17:00:00 24,3 4,6 14 7 27 15 WNW 0,0
22.05.2019 16:00:00 23,9 4,3 10 6 29 16 WNW 0,0
22.05.2019 15:00:00 22,7 4,3 8 5 21 11 NW 0,0
22.05.2019 14:00:00 22,2 5,6 5 3 20 11 W -
22.05.2019 13:00:00 20,1 4,5 5 3 13 7 NW 0,0
22.05.2019 12:00:00 19,1 5,5 5 3 15 8 E 0,0
22.05.2019 11:00:00 16,3 5,3 8 5 27 15 E 0,0
22.05.2019 10:00:00 12,6 4,3 8 5 14 8 E 0,0
22.05.2019 09:00:00 10,6 3,6 10 5 13 7 E 0,0
22.05.2019 08:00:00 7,8 3,4 7 4 11 6 E -
22.05.2019 07:00:00 5,2 2,5 8 4 13 7 ENE 0,0
22.05.2019 06:00:00 4,9 2,9 6 3 16 8 ENE 0,0
22.05.2019 05:00:00 4,8 3,8 12 7 19 10 NNE 0,0
22.05.2019 04:00:00 7,7 3,8 17 9 22 12 E 0,0
22.05.2019 03:00:00 9,4 4,1 19 10 27 14 E 0,0
22.05.2019 02:00:00 9,6 4,1 21 11 25 14 E -
22.05.2019 01:00:00 11,2 4,5 19 10 32 17 E 0,0
22.05.2019 00:00:00 12,1 4,3 20 11 30 16 E 0,0
21.05.2019 23:00:00 11,8 3,2 14 7 20 11 E 0,0
21.05.2019 22:00:00 13,9 1,9 13 7 18 10 E 0,0
21.05.2019 21:00:00 17,6 1,9 12 6 19 10 ENE 0,0
21.05.2019 20:00:00 20,3 2,7 11 6 22 12 NE -
21.05.2019 19:00:00 21,2 3,4 13 7 31 17 NNE 0,0
21.05.2019 18:00:00 20,9 3,0 14 8 28 15 NNE 0,0
21.05.2019 17:00:00 19,7 2,1 3 2 34 18 NE 0,0
21.05.2019 16:00:00 19,4 2,3 10 5 34 18 E 0,0
21.05.2019 15:00:00 19,7 2,5 6 3 24 13 NE 0,0
21.05.2019 14:00:00 18,5 3,0 8 5 29 16 E -
21.05.2019 13:00:00 18,0 3,8 10 6 28 15 E 0,0
21.05.2019 12:00:00 16,5 4,5 15 8 27 14 E 0,0
21.05.2019 11:00:00 14,6 5,1 18 10 26 14 E 0,0
21.05.2019 10:00:00 12,8 4,8 18 10 34 19 E 0,0
21.05.2019 09:00:00 11,0 5,3 22 12 31 17 E 0,0
21.05.2019 08:00:00 7,8 5,0 17 9 23 12 E -
21.05.2019 07:00:00 6,2 4,3 18 10 22 12 E 0,0
21.05.2019 06:00:00 6,5 4,6 18 10 24 13 E 0,0
21.05.2019 05:00:00 6,4 5,0 19 10 25 13 E 0,0
21.05.2019 04:00:00 6,6 5,3 16 9 22 12 E 0,0
21.05.2019 03:00:00 6,6 5,5 18 10 22 12 E 0,0
21.05.2019 02:00:00 7,4 5,0 17 9 23 13 ENE -
21.05.2019 01:00:00 9,3 3,9 17 9 22 12 E 0,0
21.05.2019 00:00:00 10,0 2,7 15 8 21 11 E 0,0
20.05.2019 23:00:00 11,5 1,7 14 8 23 13 E 0,0
20.05.2019 22:00:00 12,4 1,9 12 6 18 10 E 0,0
20.05.2019 21:00:00 15,2 2,3 8 4 17 9 ENE 0,0
20.05.2019 20:00:00 16,4 1,7 8 4 18 10 NE -
20.05.2019 19:00:00 17,5 2,3 10 6 18 10 ENE 0,0
20.05.2019 18:00:00 18,0 1,5 6 3 18 10 SSE 0,0
20.05.2019 17:00:00 17,5 2,3 8 4 21 12 ENE 0,0
20.05.2019 16:00:00 18,2 2,9 10 5 21 11 N 0,0
20.05.2019 15:00:00 17,4 2,9 5 3 22 12 SE 0,0
20.05.2019 14:00:00 16,8 3,0 9 5 17 9 ESE -
20.05.2019 13:00:00 14,3 2,5 4 2 23 12 NE 0,0
20.05.2019 12:00:00 14,0 3,4 10 6 25 13 E 0,0
20.05.2019 11:00:00 11,6 2,9 15 8 27 15 ESE 0,0
20.05.2019 10:00:00 9,7 3,6 16 9 24 13 E 0,0
20.05.2019 09:00:00 7,5 2,9 18 10 24 13 E 0,0
20.05.2019 08:00:00 5,3 3,0 16 8 21 12 E -
20.05.2019 07:00:00 3,4 1,9 17 9 23 12 E 0,0
20.05.2019 06:00:00 3,5 2,1 18 10 24 13 E 0,0
20.05.2019 05:00:00 4,0 2,1 18 10 27 15 E 0,0
20.05.2019 04:00:00 4,1 1,5 16 8 26 14 E 0,0
20.05.2019 03:00:00 4,9 1,7 18 10 32 17 E 0,0
20.05.2019 02:00:00 4,4 2,1 14 8 26 14 E -
20.05.2019 01:00:00 5,3 2,5 20 11 31 17 ENE 0,0
20.05.2019 00:00:00 6,2 2,7 21 11 32 17 E 0,0
19.05.2019 23:00:00 7,4 2,9 22 12 33 18 E 0,0
19.05.2019 22:00:00 8,4 2,9 19 11 32 17 ENE 0,0
19.05.2019 21:00:00 11,3 2,3 23 12 34 18 E 0,0
19.05.2019 20:00:00 16,1 -3,6 5 3 23 12 N -
19.05.2019 19:00:00 15,5 -3,0 7 4 19 10 NW 0,0
19.05.2019 18:00:00 17,0 -2,2 14 7 20 11 WNW 0,0
19.05.2019 17:00:00 16,7 -1,0 8 5 19 11 SSW 0,0
19.05.2019 16:00:00 15,5 -1,2 11 6 22 12 NW 0,0
19.05.2019 15:00:00 14,6 -0,7 11 6 27 14 NNW 0,0
19.05.2019 14:00:00 13,4 -1,0 9 5 24 13 WNW -
19.05.2019 13:00:00 12,8 -0,5 11 6 27 15 W 0,0
19.05.2019 12:00:00 11,9 0,4 11 6 24 13 WNW 0,0
19.05.2019 11:00:00 10,0 0,9 11 6 19 11 NW 0,0
19.05.2019 10:00:00 7,8 2,7 10 5 15 8 NW 0,0
19.05.2019 09:00:00 5,1 2,9 7 4 18 10 NW 0,0
19.05.2019 08:00:00 3,1 2,5 10 6 15 8 NNW -
19.05.2019 07:00:00 1,0 0,4 12 7 18 10 NNW 0,0
19.05.2019 06:00:00 1,1 0,4 13 7 18 10 NNW 0,0
19.05.2019 05:00:00 1,3 0,6 10 6 15 8 WNW 0,0
19.05.2019 04:00:00 1,6 0,6 11 6 19 10 WNW 0,0
19.05.2019 03:00:00 3,2 1,9 14 8 18 10 WNW 0,0
19.05.2019 02:00:00 3,5 1,5 13 7 18 10 WNW -
19.05.2019 01:00:00 5,6 2,3 12 6 15 8 WNW 0,0
19.05.2019 00:00:00 6,5 1,3 7 4 18 10 N 0,0
18.05.2019 23:00:00 8,1 1,3 13 7 20 11 N 0,0
18.05.2019 22:00:00 9,0 1,7 10 5 19 10 NNW 0,0
18.05.2019 21:00:00 10,5 0,4 14 7 27 15 NNW 0,0
18.05.2019 20:00:00 11,3 0,4 21 11 37 20 NNW -
18.05.2019 19:00:00 11,4 -0,5 26 14 39 21 NNW 0,0
18.05.2019 18:00:00 13,2 -0,5 27 14 46 25 NNW 0,0
18.05.2019 17:00:00 12,5 -1,2 31 17 46 25 NW 0,0
18.05.2019 16:00:00 13,3 -2,2 29 16 52 28 NW 0,0
18.05.2019 15:00:00 12,7 -1,0 27 15 48 26 NW 0,0
18.05.2019 14:00:00 12,7 1,1 25 13 40 21 NW -
18.05.2019 13:00:00 12,0 1,1 22 12 37 20 WNW 0,0
18.05.2019 12:00:00 11,1 1,9 22 12 36 19 WNW 0,0
18.05.2019 11:00:00 8,6 1,7 18 10 29 15 WNW 0,0
18.05.2019 10:00:00 6,4 2,3 19 10 29 16 WNW 0,0
18.05.2019 09:00:00 4,1 1,9 21 11 31 17 WNW 0,0
18.05.2019 08:00:00 2,5 1,3 19 10 27 15 W -
18.05.2019 07:00:00 1,5 0,9 18 10 26 14 W 0,0
18.05.2019 06:00:00 1,1 0,2 18 10 24 13 WNW 0,0
18.05.2019 05:00:00 1,4 0,4 11 6 17 9 W 0,0
18.05.2019 04:00:00 2,2 1,1 11 6 18 10 W 0,0
18.05.2019 03:00:00 2,5 1,3 11 6 16 9 W 0,0
18.05.2019 02:00:00 3,5 1,7 9 5 19 10 NNW -
18.05.2019 01:00:00 4,7 2,1 14 7 22 12 WNW 0,0
18.05.2019 00:00:00 6,7 2,7 13 7 22 12 WNW 0,0
17.05.2019 23:00:00 7,1 4,5 6 4 16 9 NNE 0,0
17.05.2019 22:00:00 8,8 3,9 7 4 24 13 NNE 0,0
17.05.2019 21:00:00 10,2 4,1 16 9 27 14 WNW 0,1
17.05.2019 20:00:00 10,4 6,4 5 3 23 13 N -
17.05.2019 19:00:00 12,1 0,9 15 8 32 17 N 0,0
17.05.2019 18:00:00 12,6 1,1 22 12 44 24 NNW 0,0
17.05.2019 17:00:00 12,6 1,3 22 12 32 18 NW 0,0
17.05.2019 16:00:00 12,7 1,1 21 12 51 28 NW 0,0
17.05.2019 15:00:00 13,9 1,3 29 15 46 25 NNW 0,0
17.05.2019 14:00:00 11,5 1,1 24 13 40 22 NW -
17.05.2019 13:00:00 11,9 1,3 28 15 - - NNW -
17.05.2019 12:00:00 - - 34 18 - - NNE -
17.05.2019 11:00:00 - - - - - - - -
17.05.2019 10:00:00 7,6 3,9 26 14 47 25 NW 0,0
17.05.2019 09:00:00 6,9 3,9 29 16 39 21 WNW 0,0
17.05.2019 08:00:00 6,1 3,8 27 15 42 23 WNW -
17.05.2019 07:00:00 5,6 3,8 27 14 39 21 WNW 0,0
17.05.2019 06:00:00 6,1 4,1 26 14 40 21 WNW 0,0
17.05.2019 05:00:00 6,0 4,5 19 11 35 19 W 0,0
17.05.2019 04:00:00 5,7 4,3 23 12 33 18 WNW 0,0
17.05.2019 03:00:00 5,2 3,8 20 11 32 18 WNW 0,0
17.05.2019 02:00:00 6,5 5,5 21 11 32 17 WNW -
17.05.2019 01:00:00 6,9 6,4 13 7 20 11 W 0,0
17.05.2019 00:00:00 6,8 6,5 15 8 25 14 NW 0,1
16.05.2019 23:00:00 7,0 6,7 18 10 50 27 N 2,2
16.05.2019 22:00:00 7,1 6,8 34 18 50 27 NW 1,9
16.05.2019 21:00:00 9,8 8,5 33 18 42 23 WNW 0,6
16.05.2019 20:00:00 13,1 9,2 19 10 30 16 NNW -
16.05.2019 19:00:00 16,5 7,1 19 11 32 17 NNW 0,0
16.05.2019 18:00:00 17,7 7,4 21 12 29 16 NW 0,0
16.05.2019 17:00:00 17,2 6,7 10 6 40 21 NNW 0,0

tt = temperature
td = dewpoint
ff = wind speed
fx = gusts
dd = wind direction
rr = precipitation

Next stations